<?xml version="1.0" encoding="UTF-8" standalone="no" ?>
<gpx xmlns="http://www.topografix.com/GPX/1/1" xmlns:xsi="http://www.w3.org/2001/XMLSchema-instance" xsi:schemaLocation="http://www.topografix.com/GPX/1/1 http://www.topografix.com/GPX/1/1/gpx.xsd" version="1.1" creator="VisuGPX - https://www.visugpx.com">
  <metadata>
    <name>Réaupal - Champdray</name>
    <desc><![CDATA[Carte 3618 OT Le Honeck - Gérardmer
2h45]]></desc>
  </metadata>
  <trk>
    <name><![CDATA[Réaupal - Champdray]]></name>
    <desc><![CDATA[Carte 3618 OT Le Honeck - Gérardmer
2h45]]></desc>
    <trkseg>
      <trkpt lat="48.12025" lon="6.73176">
        <ele>502.28</ele>
        <time>2014-02-03T14:10:51Z</time>
      </trkpt>
      <trkpt lat="48.12025" lon="6.73176">
        <ele>502.28</ele>
        <time>2014-02-03T14:10:52Z</time>
      </trkpt>
      <trkpt lat="48.12029" lon="6.73173">
        <ele>502.24</ele>
        <time>2014-02-03T14:11:02Z</time>
      </trkpt>
      <trkpt lat="48.1203" lon="6.73173">
        <ele>502.12</ele>
        <time>2014-02-03T14:11:03Z</time>
      </trkpt>
      <trkpt lat="48.12031" lon="6.73173">
        <ele>502.07</ele>
        <time>2014-02-03T14:11:04Z</time>
      </trkpt>
      <trkpt lat="48.12038" lon="6.73164">
        <ele>502.52</ele>
        <time>2014-02-03T14:11:15Z</time>
      </trkpt>
      <trkpt lat="48.12043" lon="6.7316">
        <ele>503.57</ele>
        <time>2014-02-03T14:11:30Z</time>
      </trkpt>
      <trkpt lat="48.12058" lon="6.73159">
        <ele>504.89</ele>
        <time>2014-02-03T14:11:48Z</time>
      </trkpt>
      <trkpt lat="48.12066" lon="6.73163">
        <ele>506.26</ele>
        <time>2014-02-03T14:12:00Z</time>
      </trkpt>
      <trkpt lat="48.12074" lon="6.73165">
        <ele>507.35</ele>
        <time>2014-02-03T14:12:12Z</time>
      </trkpt>
      <trkpt lat="48.12076" lon="6.73166">
        <ele>507.44</ele>
        <time>2014-02-03T14:12:13Z</time>
      </trkpt>
      <trkpt lat="48.12077" lon="6.73166">
        <ele>507.53</ele>
        <time>2014-02-03T14:12:14Z</time>
      </trkpt>
      <trkpt lat="48.12078" lon="6.73167">
        <ele>507.63</ele>
        <time>2014-02-03T14:12:15Z</time>
      </trkpt>
      <trkpt lat="48.12091" lon="6.73179">
        <ele>509.87</ele>
        <time>2014-02-03T14:12:30Z</time>
      </trkpt>
      <trkpt lat="48.12099" lon="6.73182">
        <ele>510.91</ele>
        <time>2014-02-03T14:12:37Z</time>
      </trkpt>
      <trkpt lat="48.12107" lon="6.73184">
        <ele>512.16</ele>
        <time>2014-02-03T14:12:45Z</time>
      </trkpt>
      <trkpt lat="48.12113" lon="6.73189">
        <ele>513.42</ele>
        <time>2014-02-03T14:12:53Z</time>
      </trkpt>
      <trkpt lat="48.1212" lon="6.73205">
        <ele>515.03</ele>
        <time>2014-02-03T14:13:07Z</time>
      </trkpt>
      <trkpt lat="48.12121" lon="6.73207">
        <ele>515.15</ele>
        <time>2014-02-03T14:13:08Z</time>
      </trkpt>
      <trkpt lat="48.12125" lon="6.73219">
        <ele>516.26</ele>
        <time>2014-02-03T14:13:24Z</time>
      </trkpt>
      <trkpt lat="48.12122" lon="6.73232">
        <ele>516.65</ele>
        <time>2014-02-03T14:13:32Z</time>
      </trkpt>
      <trkpt lat="48.12114" lon="6.73254">
        <ele>518.29</ele>
        <time>2014-02-03T14:13:46Z</time>
      </trkpt>
      <trkpt lat="48.12106" lon="6.73272">
        <ele>520.02</ele>
        <time>2014-02-03T14:13:59Z</time>
      </trkpt>
      <trkpt lat="48.12095" lon="6.733">
        <ele>522.25</ele>
        <time>2014-02-03T14:14:17Z</time>
      </trkpt>
      <trkpt lat="48.12091" lon="6.73306">
        <ele>522.64</ele>
        <time>2014-02-03T14:14:21Z</time>
      </trkpt>
      <trkpt lat="48.1209" lon="6.73308">
        <ele>522.72</ele>
        <time>2014-02-03T14:14:22Z</time>
      </trkpt>
      <trkpt lat="48.1208" lon="6.73328">
        <ele>524</ele>
        <time>2014-02-03T14:14:39Z</time>
      </trkpt>
      <trkpt lat="48.12074" lon="6.73341">
        <ele>524.33</ele>
        <time>2014-02-03T14:14:48Z</time>
      </trkpt>
      <trkpt lat="48.12072" lon="6.73347">
        <ele>524.54</ele>
        <time>2014-02-03T14:14:53Z</time>
      </trkpt>
      <trkpt lat="48.12063" lon="6.73369">
        <ele>525.3</ele>
        <time>2014-02-03T14:15:09Z</time>
      </trkpt>
      <trkpt lat="48.12061" lon="6.7338">
        <ele>525.78</ele>
        <time>2014-02-03T14:15:25Z</time>
      </trkpt>
      <trkpt lat="48.12059" lon="6.73385">
        <ele>525.77</ele>
        <time>2014-02-03T14:15:28Z</time>
      </trkpt>
      <trkpt lat="48.12056" lon="6.73407">
        <ele>526.32</ele>
        <time>2014-02-03T14:15:42Z</time>
      </trkpt>
      <trkpt lat="48.12054" lon="6.73415">
        <ele>526.45</ele>
        <time>2014-02-03T14:15:47Z</time>
      </trkpt>
      <trkpt lat="48.12053" lon="6.73416">
        <ele>526.49</ele>
        <time>2014-02-03T14:15:48Z</time>
      </trkpt>
      <trkpt lat="48.12049" lon="6.73434">
        <ele>527.64</ele>
        <time>2014-02-03T14:16:01Z</time>
      </trkpt>
      <trkpt lat="48.12046" lon="6.73443">
        <ele>528.18</ele>
        <time>2014-02-03T14:16:07Z</time>
      </trkpt>
      <trkpt lat="48.12046" lon="6.73445">
        <ele>528.27</ele>
        <time>2014-02-03T14:16:08Z</time>
      </trkpt>
      <trkpt lat="48.12045" lon="6.73446">
        <ele>528.35</ele>
        <time>2014-02-03T14:16:09Z</time>
      </trkpt>
      <trkpt lat="48.12045" lon="6.73448">
        <ele>528.38</ele>
        <time>2014-02-03T14:16:10Z</time>
      </trkpt>
      <trkpt lat="48.12046" lon="6.73461">
        <ele>529.35</ele>
        <time>2014-02-03T14:16:26Z</time>
      </trkpt>
      <trkpt lat="48.12046" lon="6.73462">
        <ele>529.36</ele>
        <time>2014-02-03T14:16:27Z</time>
      </trkpt>
      <trkpt lat="48.12047" lon="6.73474">
        <ele>530.34</ele>
        <time>2014-02-03T14:16:40Z</time>
      </trkpt>
      <trkpt lat="48.12046" lon="6.73476">
        <ele>530.38</ele>
        <time>2014-02-03T14:16:41Z</time>
      </trkpt>
      <trkpt lat="48.12046" lon="6.73477">
        <ele>530.43</ele>
        <time>2014-02-03T14:16:42Z</time>
      </trkpt>
      <trkpt lat="48.12046" lon="6.73479">
        <ele>530.47</ele>
        <time>2014-02-03T14:16:43Z</time>
      </trkpt>
      <trkpt lat="48.12046" lon="6.73481">
        <ele>530.53</ele>
        <time>2014-02-03T14:16:44Z</time>
      </trkpt>
      <trkpt lat="48.12049" lon="6.73504">
        <ele>532.25</ele>
        <time>2014-02-03T14:16:58Z</time>
      </trkpt>
      <trkpt lat="48.1205" lon="6.73526">
        <ele>535.02</ele>
        <time>2014-02-03T14:17:12Z</time>
      </trkpt>
      <trkpt lat="48.12052" lon="6.73558">
        <ele>537.93</ele>
        <time>2014-02-03T14:17:32Z</time>
      </trkpt>
      <trkpt lat="48.12052" lon="6.73573">
        <ele>539.05</ele>
        <time>2014-02-03T14:17:39Z</time>
      </trkpt>
      <trkpt lat="48.12052" lon="6.73575">
        <ele>539.23</ele>
        <time>2014-02-03T14:17:40Z</time>
      </trkpt>
      <trkpt lat="48.12051" lon="6.73577">
        <ele>539.42</ele>
        <time>2014-02-03T14:17:41Z</time>
      </trkpt>
      <trkpt lat="48.12049" lon="6.73602">
        <ele>542.02</ele>
        <time>2014-02-03T14:17:57Z</time>
      </trkpt>
      <trkpt lat="48.12047" lon="6.73626">
        <ele>543.67</ele>
        <time>2014-02-03T14:18:13Z</time>
      </trkpt>
      <trkpt lat="48.12048" lon="6.73649">
        <ele>545.61</ele>
        <time>2014-02-03T14:18:28Z</time>
      </trkpt>
      <trkpt lat="48.1205" lon="6.73676">
        <ele>547.81</ele>
        <time>2014-02-03T14:18:45Z</time>
      </trkpt>
      <trkpt lat="48.12051" lon="6.73703">
        <ele>550.14</ele>
        <time>2014-02-03T14:19:01Z</time>
      </trkpt>
      <trkpt lat="48.1205" lon="6.73731">
        <ele>552.67</ele>
        <time>2014-02-03T14:19:21Z</time>
      </trkpt>
      <trkpt lat="48.1205" lon="6.73733">
        <ele>552.78</ele>
        <time>2014-02-03T14:19:22Z</time>
      </trkpt>
      <trkpt lat="48.1205" lon="6.7374">
        <ele>553.49</ele>
        <time>2014-02-03T14:19:26Z</time>
      </trkpt>
      <trkpt lat="48.12051" lon="6.73741">
        <ele>553.86</ele>
        <time>2014-02-03T14:19:27Z</time>
      </trkpt>
      <trkpt lat="48.1205" lon="6.73771">
        <ele>556.37</ele>
        <time>2014-02-03T14:19:46Z</time>
      </trkpt>
      <trkpt lat="48.12058" lon="6.73784">
        <ele>558.58</ele>
        <time>2014-02-03T14:20:01Z</time>
      </trkpt>
      <trkpt lat="48.12065" lon="6.73776">
        <ele>560.45</ele>
        <time>2014-02-03T14:20:16Z</time>
      </trkpt>
      <trkpt lat="48.12074" lon="6.73767">
        <ele>562.99</ele>
        <time>2014-02-03T14:20:35Z</time>
      </trkpt>
      <trkpt lat="48.12087" lon="6.73756">
        <ele>564.97</ele>
        <time>2014-02-03T14:20:50Z</time>
      </trkpt>
      <trkpt lat="48.12101" lon="6.73745">
        <ele>568.05</ele>
        <time>2014-02-03T14:21:08Z</time>
      </trkpt>
      <trkpt lat="48.12108" lon="6.73731">
        <ele>569.89</ele>
        <time>2014-02-03T14:21:20Z</time>
      </trkpt>
      <trkpt lat="48.12116" lon="6.7371">
        <ele>572.12</ele>
        <time>2014-02-03T14:21:37Z</time>
      </trkpt>
      <trkpt lat="48.12119" lon="6.73704">
        <ele>572.76</ele>
        <time>2014-02-03T14:21:56Z</time>
      </trkpt>
      <trkpt lat="48.12121" lon="6.73697">
        <ele>572.96</ele>
        <time>2014-02-03T14:22:01Z</time>
      </trkpt>
      <trkpt lat="48.12122" lon="6.73695">
        <ele>573.01</ele>
        <time>2014-02-03T14:22:02Z</time>
      </trkpt>
      <trkpt lat="48.12123" lon="6.73692">
        <ele>573.06</ele>
        <time>2014-02-03T14:22:04Z</time>
      </trkpt>
      <trkpt lat="48.12123" lon="6.7369">
        <ele>573.09</ele>
        <time>2014-02-03T14:22:05Z</time>
      </trkpt>
      <trkpt lat="48.12132" lon="6.73675">
        <ele>574.05</ele>
        <time>2014-02-03T14:22:20Z</time>
      </trkpt>
      <trkpt lat="48.12146" lon="6.73649">
        <ele>575.07</ele>
        <time>2014-02-03T14:22:41Z</time>
      </trkpt>
      <trkpt lat="48.12159" lon="6.73623">
        <ele>575.92</ele>
        <time>2014-02-03T14:23:00Z</time>
      </trkpt>
      <trkpt lat="48.12171" lon="6.73603">
        <ele>576.52</ele>
        <time>2014-02-03T14:23:17Z</time>
      </trkpt>
      <trkpt lat="48.12173" lon="6.73602">
        <ele>576.53</ele>
        <time>2014-02-03T14:23:34Z</time>
      </trkpt>
      <trkpt lat="48.12174" lon="6.73601">
        <ele>576.57</ele>
        <time>2014-02-03T14:23:36Z</time>
      </trkpt>
      <trkpt lat="48.12178" lon="6.73597">
        <ele>576.84</ele>
        <time>2014-02-03T14:23:40Z</time>
      </trkpt>
      <trkpt lat="48.12195" lon="6.73584">
        <ele>576.92</ele>
        <time>2014-02-03T14:23:58Z</time>
      </trkpt>
      <trkpt lat="48.1221" lon="6.73594">
        <ele>577.75</ele>
        <time>2014-02-03T14:24:13Z</time>
      </trkpt>
      <trkpt lat="48.12218" lon="6.7361">
        <ele>580.83</ele>
        <time>2014-02-03T14:24:31Z</time>
      </trkpt>
      <trkpt lat="48.12215" lon="6.7363">
        <ele>584.04</ele>
        <time>2014-02-03T14:24:53Z</time>
      </trkpt>
      <trkpt lat="48.1221" lon="6.73651">
        <ele>587.07</ele>
        <time>2014-02-03T14:25:11Z</time>
      </trkpt>
      <trkpt lat="48.1221" lon="6.73662">
        <ele>588.66</ele>
        <time>2014-02-03T14:25:31Z</time>
      </trkpt>
      <trkpt lat="48.12211" lon="6.73678">
        <ele>591.07</ele>
        <time>2014-02-03T14:25:51Z</time>
      </trkpt>
      <trkpt lat="48.12212" lon="6.73681">
        <ele>592.04</ele>
        <time>2014-02-03T14:26:07Z</time>
      </trkpt>
      <trkpt lat="48.12213" lon="6.73683">
        <ele>592.33</ele>
        <time>2014-02-03T14:26:25Z</time>
      </trkpt>
      <trkpt lat="48.12213" lon="6.73681">
        <ele>592.2</ele>
        <time>2014-02-03T14:27:15Z</time>
      </trkpt>
      <trkpt lat="48.12213" lon="6.73682">
        <ele>592.02</ele>
        <time>2014-02-03T14:27:58Z</time>
      </trkpt>
      <trkpt lat="48.12214" lon="6.73683">
        <ele>592.62</ele>
        <time>2014-02-03T14:28:26Z</time>
      </trkpt>
      <trkpt lat="48.12214" lon="6.73681">
        <ele>592.78</ele>
        <time>2014-02-03T14:28:57Z</time>
      </trkpt>
      <trkpt lat="48.12213" lon="6.73682">
        <ele>592.59</ele>
        <time>2014-02-03T14:29:50Z</time>
      </trkpt>
      <trkpt lat="48.12213" lon="6.73684">
        <ele>592.47</ele>
        <time>2014-02-03T14:30:38Z</time>
      </trkpt>
      <trkpt lat="48.12213" lon="6.73687">
        <ele>592.57</ele>
        <time>2014-02-03T14:31:29Z</time>
      </trkpt>
      <trkpt lat="48.12214" lon="6.73687">
        <ele>592.54</ele>
        <time>2014-02-03T14:32:10Z</time>
      </trkpt>
      <trkpt lat="48.12215" lon="6.73697">
        <ele>592.61</ele>
        <time>2014-02-03T14:32:36Z</time>
      </trkpt>
      <trkpt lat="48.12224" lon="6.73717">
        <ele>594.99</ele>
        <time>2014-02-03T14:32:56Z</time>
      </trkpt>
      <trkpt lat="48.12236" lon="6.73733">
        <ele>598.08</ele>
        <time>2014-02-03T14:33:12Z</time>
      </trkpt>
      <trkpt lat="48.12244" lon="6.7375">
        <ele>601.24</ele>
        <time>2014-02-03T14:33:28Z</time>
      </trkpt>
      <trkpt lat="48.12251" lon="6.73771">
        <ele>604.19</ele>
        <time>2014-02-03T14:33:47Z</time>
      </trkpt>
      <trkpt lat="48.12258" lon="6.73778">
        <ele>607.37</ele>
        <time>2014-02-03T14:34:00Z</time>
      </trkpt>
      <trkpt lat="48.12267" lon="6.73781">
        <ele>610.37</ele>
        <time>2014-02-03T14:34:15Z</time>
      </trkpt>
      <trkpt lat="48.12283" lon="6.73795">
        <ele>613.48</ele>
        <time>2014-02-03T14:34:36Z</time>
      </trkpt>
      <trkpt lat="48.12289" lon="6.73801">
        <ele>614.3</ele>
        <time>2014-02-03T14:34:41Z</time>
      </trkpt>
      <trkpt lat="48.12305" lon="6.73823">
        <ele>616.14</ele>
        <time>2014-02-03T14:34:58Z</time>
      </trkpt>
      <trkpt lat="48.12307" lon="6.73826">
        <ele>616.49</ele>
        <time>2014-02-03T14:35:01Z</time>
      </trkpt>
      <trkpt lat="48.12319" lon="6.73853">
        <ele>617.94</ele>
        <time>2014-02-03T14:35:18Z</time>
      </trkpt>
      <trkpt lat="48.12331" lon="6.73879">
        <ele>618.91</ele>
        <time>2014-02-03T14:35:34Z</time>
      </trkpt>
      <trkpt lat="48.12346" lon="6.73897">
        <ele>619.89</ele>
        <time>2014-02-03T14:35:49Z</time>
      </trkpt>
      <trkpt lat="48.1236" lon="6.73911">
        <ele>621.24</ele>
        <time>2014-02-03T14:36:03Z</time>
      </trkpt>
      <trkpt lat="48.12382" lon="6.73918">
        <ele>622.84</ele>
        <time>2014-02-03T14:36:21Z</time>
      </trkpt>
      <trkpt lat="48.12392" lon="6.73909">
        <ele>622.97</ele>
        <time>2014-02-03T14:36:32Z</time>
      </trkpt>
      <trkpt lat="48.12407" lon="6.73902">
        <ele>623.39</ele>
        <time>2014-02-03T14:36:49Z</time>
      </trkpt>
      <trkpt lat="48.12415" lon="6.73898">
        <ele>624.09</ele>
        <time>2014-02-03T14:37:03Z</time>
      </trkpt>
      <trkpt lat="48.12421" lon="6.73893">
        <ele>624.13</ele>
        <time>2014-02-03T14:37:13Z</time>
      </trkpt>
      <trkpt lat="48.12437" lon="6.73889">
        <ele>624.88</ele>
        <time>2014-02-03T14:37:30Z</time>
      </trkpt>
      <trkpt lat="48.12461" lon="6.73887">
        <ele>625.92</ele>
        <time>2014-02-03T14:37:51Z</time>
      </trkpt>
      <trkpt lat="48.12481" lon="6.73877">
        <ele>626.22</ele>
        <time>2014-02-03T14:38:06Z</time>
      </trkpt>
      <trkpt lat="48.12499" lon="6.73874">
        <ele>626.7</ele>
        <time>2014-02-03T14:38:22Z</time>
      </trkpt>
      <trkpt lat="48.12514" lon="6.7388">
        <ele>626.58</ele>
        <time>2014-02-03T14:38:41Z</time>
      </trkpt>
      <trkpt lat="48.12529" lon="6.73888">
        <ele>626.39</ele>
        <time>2014-02-03T14:39:01Z</time>
      </trkpt>
      <trkpt lat="48.12545" lon="6.73904">
        <ele>626.91</ele>
        <time>2014-02-03T14:39:21Z</time>
      </trkpt>
      <trkpt lat="48.12562" lon="6.7392">
        <ele>626.78</ele>
        <time>2014-02-03T14:39:39Z</time>
      </trkpt>
      <trkpt lat="48.12572" lon="6.73927">
        <ele>627.38</ele>
        <time>2014-02-03T14:39:51Z</time>
      </trkpt>
      <trkpt lat="48.12575" lon="6.73928">
        <ele>627.47</ele>
        <time>2014-02-03T14:39:54Z</time>
      </trkpt>
      <trkpt lat="48.12609" lon="6.73937">
        <ele>628.69</ele>
        <time>2014-02-03T14:40:15Z</time>
      </trkpt>
      <trkpt lat="48.12619" lon="6.73939">
        <ele>628.9</ele>
        <time>2014-02-03T14:40:19Z</time>
      </trkpt>
      <trkpt lat="48.12639" lon="6.73952">
        <ele>630.17</ele>
        <time>2014-02-03T14:40:36Z</time>
      </trkpt>
      <trkpt lat="48.12646" lon="6.73961">
        <ele>630.55</ele>
        <time>2014-02-03T14:40:44Z</time>
      </trkpt>
      <trkpt lat="48.12658" lon="6.73984">
        <ele>631.59</ele>
        <time>2014-02-03T14:41:02Z</time>
      </trkpt>
      <trkpt lat="48.12668" lon="6.74001">
        <ele>632.6</ele>
        <time>2014-02-03T14:41:16Z</time>
      </trkpt>
      <trkpt lat="48.12676" lon="6.74008">
        <ele>633.94</ele>
        <time>2014-02-03T14:41:35Z</time>
      </trkpt>
      <trkpt lat="48.12684" lon="6.74021">
        <ele>635.2</ele>
        <time>2014-02-03T14:41:52Z</time>
      </trkpt>
      <trkpt lat="48.12697" lon="6.74042">
        <ele>637.36</ele>
        <time>2014-02-03T14:42:13Z</time>
      </trkpt>
      <trkpt lat="48.12705" lon="6.74062">
        <ele>639.35</ele>
        <time>2014-02-03T14:42:32Z</time>
      </trkpt>
      <trkpt lat="48.12712" lon="6.74087">
        <ele>641.3</ele>
        <time>2014-02-03T14:42:51Z</time>
      </trkpt>
      <trkpt lat="48.12722" lon="6.74105">
        <ele>643.06</ele>
        <time>2014-02-03T14:43:10Z</time>
      </trkpt>
      <trkpt lat="48.12732" lon="6.74117">
        <ele>644.85</ele>
        <time>2014-02-03T14:43:27Z</time>
      </trkpt>
      <trkpt lat="48.12747" lon="6.74137">
        <ele>646.65</ele>
        <time>2014-02-03T14:43:48Z</time>
      </trkpt>
      <trkpt lat="48.12758" lon="6.74143">
        <ele>648.16</ele>
        <time>2014-02-03T14:44:05Z</time>
      </trkpt>
      <trkpt lat="48.12775" lon="6.74153">
        <ele>649.95</ele>
        <time>2014-02-03T14:44:25Z</time>
      </trkpt>
      <trkpt lat="48.12801" lon="6.74159">
        <ele>651.19</ele>
        <time>2014-02-03T14:44:45Z</time>
      </trkpt>
      <trkpt lat="48.12814" lon="6.74168">
        <ele>652.73</ele>
        <time>2014-02-03T14:45:05Z</time>
      </trkpt>
      <trkpt lat="48.12829" lon="6.74171">
        <ele>654.54</ele>
        <time>2014-02-03T14:45:27Z</time>
      </trkpt>
      <trkpt lat="48.12833" lon="6.74173">
        <ele>655.1</ele>
        <time>2014-02-03T14:45:37Z</time>
      </trkpt>
      <trkpt lat="48.12852" lon="6.74169">
        <ele>656.05</ele>
        <time>2014-02-03T14:45:59Z</time>
      </trkpt>
      <trkpt lat="48.12873" lon="6.74162">
        <ele>657.32</ele>
        <time>2014-02-03T14:46:18Z</time>
      </trkpt>
      <trkpt lat="48.12878" lon="6.74161">
        <ele>657.67</ele>
        <time>2014-02-03T14:46:24Z</time>
      </trkpt>
      <trkpt lat="48.12898" lon="6.74158">
        <ele>658.83</ele>
        <time>2014-02-03T14:46:44Z</time>
      </trkpt>
      <trkpt lat="48.12899" lon="6.74158">
        <ele>658.98</ele>
        <time>2014-02-03T14:46:46Z</time>
      </trkpt>
      <trkpt lat="48.12925" lon="6.74169">
        <ele>660.99</ele>
        <time>2014-02-03T14:47:05Z</time>
      </trkpt>
      <trkpt lat="48.12939" lon="6.74176">
        <ele>662.58</ele>
        <time>2014-02-03T14:47:22Z</time>
      </trkpt>
      <trkpt lat="48.12958" lon="6.74181">
        <ele>664.63</ele>
        <time>2014-02-03T14:47:42Z</time>
      </trkpt>
      <trkpt lat="48.12975" lon="6.74193">
        <ele>666.09</ele>
        <time>2014-02-03T14:47:58Z</time>
      </trkpt>
      <trkpt lat="48.12993" lon="6.74205">
        <ele>668.3</ele>
        <time>2014-02-03T14:48:20Z</time>
      </trkpt>
      <trkpt lat="48.13011" lon="6.74197">
        <ele>670.83</ele>
        <time>2014-02-03T14:48:43Z</time>
      </trkpt>
      <trkpt lat="48.13024" lon="6.7419">
        <ele>673.08</ele>
        <time>2014-02-03T14:49:03Z</time>
      </trkpt>
      <trkpt lat="48.13035" lon="6.74181">
        <ele>674.41</ele>
        <time>2014-02-03T14:49:24Z</time>
      </trkpt>
      <trkpt lat="48.13047" lon="6.74179">
        <ele>676.8</ele>
        <time>2014-02-03T14:49:42Z</time>
      </trkpt>
      <trkpt lat="48.13067" lon="6.74178">
        <ele>679.56</ele>
        <time>2014-02-03T14:50:03Z</time>
      </trkpt>
      <trkpt lat="48.1309" lon="6.74179">
        <ele>682.15</ele>
        <time>2014-02-03T14:50:24Z</time>
      </trkpt>
      <trkpt lat="48.13091" lon="6.74179">
        <ele>682.29</ele>
        <time>2014-02-03T14:50:25Z</time>
      </trkpt>
      <trkpt lat="48.13112" lon="6.74178">
        <ele>685.19</ele>
        <time>2014-02-03T14:50:49Z</time>
      </trkpt>
      <trkpt lat="48.13129" lon="6.74175">
        <ele>686.93</ele>
        <time>2014-02-03T14:51:08Z</time>
      </trkpt>
      <trkpt lat="48.1314" lon="6.74167">
        <ele>688.4</ele>
        <time>2014-02-03T14:51:23Z</time>
      </trkpt>
      <trkpt lat="48.13155" lon="6.74158">
        <ele>689.82</ele>
        <time>2014-02-03T14:51:41Z</time>
      </trkpt>
      <trkpt lat="48.13162" lon="6.74154">
        <ele>691.06</ele>
        <time>2014-02-03T14:51:53Z</time>
      </trkpt>
      <trkpt lat="48.13176" lon="6.7415">
        <ele>692.46</ele>
        <time>2014-02-03T14:52:12Z</time>
      </trkpt>
      <trkpt lat="48.13176" lon="6.74135">
        <ele>692.98</ele>
        <time>2014-02-03T14:52:37Z</time>
      </trkpt>
      <trkpt lat="48.1317" lon="6.74132">
        <ele>691.97</ele>
        <time>2014-02-03T14:52:59Z</time>
      </trkpt>
      <trkpt lat="48.1316" lon="6.74114">
        <ele>691.13</ele>
        <time>2014-02-03T14:53:19Z</time>
      </trkpt>
      <trkpt lat="48.13155" lon="6.74098">
        <ele>689.94</ele>
        <time>2014-02-03T14:53:40Z</time>
      </trkpt>
      <trkpt lat="48.1314" lon="6.7408">
        <ele>689.23</ele>
        <time>2014-02-03T14:54:02Z</time>
      </trkpt>
      <trkpt lat="48.13127" lon="6.74061">
        <ele>688.77</ele>
        <time>2014-02-03T14:54:25Z</time>
      </trkpt>
      <trkpt lat="48.13124" lon="6.74046">
        <ele>688</ele>
        <time>2014-02-03T14:54:41Z</time>
      </trkpt>
      <trkpt lat="48.13121" lon="6.74035">
        <ele>688.97</ele>
        <time>2014-02-03T14:54:59Z</time>
      </trkpt>
      <trkpt lat="48.13122" lon="6.74038">
        <ele>687.58</ele>
        <time>2014-02-03T14:55:38Z</time>
      </trkpt>
      <trkpt lat="48.13122" lon="6.74041">
        <ele>686.75</ele>
        <time>2014-02-03T14:56:17Z</time>
      </trkpt>
      <trkpt lat="48.13115" lon="6.7403">
        <ele>686.7</ele>
        <time>2014-02-03T14:56:37Z</time>
      </trkpt>
      <trkpt lat="48.13113" lon="6.73997">
        <ele>688.99</ele>
        <time>2014-02-03T14:56:56Z</time>
      </trkpt>
      <trkpt lat="48.1311" lon="6.73967">
        <ele>689.33</ele>
        <time>2014-02-03T14:57:12Z</time>
      </trkpt>
      <trkpt lat="48.13104" lon="6.73942">
        <ele>688.82</ele>
        <time>2014-02-03T14:57:24Z</time>
      </trkpt>
      <trkpt lat="48.13102" lon="6.73917">
        <ele>688.36</ele>
        <time>2014-02-03T14:57:40Z</time>
      </trkpt>
      <trkpt lat="48.131" lon="6.73886">
        <ele>687.73</ele>
        <time>2014-02-03T14:58:00Z</time>
      </trkpt>
      <trkpt lat="48.13091" lon="6.73855">
        <ele>687.42</ele>
        <time>2014-02-03T14:58:17Z</time>
      </trkpt>
      <trkpt lat="48.13078" lon="6.73813">
        <ele>687.04</ele>
        <time>2014-02-03T14:58:39Z</time>
      </trkpt>
      <trkpt lat="48.1307" lon="6.73773">
        <ele>686.49</ele>
        <time>2014-02-03T14:58:58Z</time>
      </trkpt>
      <trkpt lat="48.13063" lon="6.73743">
        <ele>685.9</ele>
        <time>2014-02-03T14:59:13Z</time>
      </trkpt>
      <trkpt lat="48.13054" lon="6.7371">
        <ele>685.49</ele>
        <time>2014-02-03T14:59:28Z</time>
      </trkpt>
      <trkpt lat="48.13051" lon="6.73685">
        <ele>685.82</ele>
        <time>2014-02-03T14:59:43Z</time>
      </trkpt>
      <trkpt lat="48.13054" lon="6.73655">
        <ele>686.86</ele>
        <time>2014-02-03T14:59:59Z</time>
      </trkpt>
      <trkpt lat="48.13055" lon="6.73628">
        <ele>687.76</ele>
        <time>2014-02-03T15:00:14Z</time>
      </trkpt>
      <trkpt lat="48.13059" lon="6.73604">
        <ele>688.62</ele>
        <time>2014-02-03T15:00:30Z</time>
      </trkpt>
      <trkpt lat="48.13064" lon="6.7358">
        <ele>688.76</ele>
        <time>2014-02-03T15:00:45Z</time>
      </trkpt>
      <trkpt lat="48.13064" lon="6.73577">
        <ele>688.67</ele>
        <time>2014-02-03T15:00:47Z</time>
      </trkpt>
      <trkpt lat="48.13068" lon="6.73551">
        <ele>688.48</ele>
        <time>2014-02-03T15:01:02Z</time>
      </trkpt>
      <trkpt lat="48.13071" lon="6.73533">
        <ele>688.48</ele>
        <time>2014-02-03T15:01:14Z</time>
      </trkpt>
      <trkpt lat="48.13075" lon="6.7351">
        <ele>688.97</ele>
        <time>2014-02-03T15:01:29Z</time>
      </trkpt>
      <trkpt lat="48.13086" lon="6.73477">
        <ele>689.57</ele>
        <time>2014-02-03T15:01:52Z</time>
      </trkpt>
      <trkpt lat="48.13096" lon="6.73453">
        <ele>690.29</ele>
        <time>2014-02-03T15:02:11Z</time>
      </trkpt>
      <trkpt lat="48.13111" lon="6.73428">
        <ele>690.76</ele>
        <time>2014-02-03T15:02:31Z</time>
      </trkpt>
      <trkpt lat="48.13126" lon="6.734">
        <ele>691.73</ele>
        <time>2014-02-03T15:02:50Z</time>
      </trkpt>
      <trkpt lat="48.1314" lon="6.7338">
        <ele>692.05</ele>
        <time>2014-02-03T15:03:05Z</time>
      </trkpt>
      <trkpt lat="48.13145" lon="6.73374">
        <ele>692.03</ele>
        <time>2014-02-03T15:03:11Z</time>
      </trkpt>
      <trkpt lat="48.13164" lon="6.73353">
        <ele>691.88</ele>
        <time>2014-02-03T15:03:28Z</time>
      </trkpt>
      <trkpt lat="48.13167" lon="6.73347">
        <ele>691.96</ele>
        <time>2014-02-03T15:03:31Z</time>
      </trkpt>
      <trkpt lat="48.13169" lon="6.73343">
        <ele>692.02</ele>
        <time>2014-02-03T15:03:33Z</time>
      </trkpt>
      <trkpt lat="48.1318" lon="6.73327">
        <ele>691.72</ele>
        <time>2014-02-03T15:03:46Z</time>
      </trkpt>
      <trkpt lat="48.13195" lon="6.73315">
        <ele>690.66</ele>
        <time>2014-02-03T15:04:03Z</time>
      </trkpt>
      <trkpt lat="48.13217" lon="6.73311">
        <ele>689</ele>
        <time>2014-02-03T15:04:24Z</time>
      </trkpt>
      <trkpt lat="48.13239" lon="6.73316">
        <ele>687.78</ele>
        <time>2014-02-03T15:04:42Z</time>
      </trkpt>
      <trkpt lat="48.1326" lon="6.7332">
        <ele>687.64</ele>
        <time>2014-02-03T15:05:02Z</time>
      </trkpt>
      <trkpt lat="48.13286" lon="6.73309">
        <ele>687.84</ele>
        <time>2014-02-03T15:05:23Z</time>
      </trkpt>
      <trkpt lat="48.13304" lon="6.73299">
        <ele>688.44</ele>
        <time>2014-02-03T15:05:43Z</time>
      </trkpt>
      <trkpt lat="48.1333" lon="6.73288">
        <ele>687.61</ele>
        <time>2014-02-03T15:06:03Z</time>
      </trkpt>
      <trkpt lat="48.13348" lon="6.7328">
        <ele>687.32</ele>
        <time>2014-02-03T15:06:21Z</time>
      </trkpt>
      <trkpt lat="48.13368" lon="6.73275">
        <ele>687.31</ele>
        <time>2014-02-03T15:06:40Z</time>
      </trkpt>
      <trkpt lat="48.1339" lon="6.73263">
        <ele>686.62</ele>
        <time>2014-02-03T15:07:02Z</time>
      </trkpt>
      <trkpt lat="48.13399" lon="6.73254">
        <ele>686.12</ele>
        <time>2014-02-03T15:07:17Z</time>
      </trkpt>
      <trkpt lat="48.13399" lon="6.73249">
        <ele>686.08</ele>
        <time>2014-02-03T15:07:31Z</time>
      </trkpt>
      <trkpt lat="48.13414" lon="6.73243">
        <ele>686.08</ele>
        <time>2014-02-03T15:07:47Z</time>
      </trkpt>
      <trkpt lat="48.13416" lon="6.73243">
        <ele>686.08</ele>
        <time>2014-02-03T15:07:49Z</time>
      </trkpt>
      <trkpt lat="48.13431" lon="6.73238">
        <ele>685.61</ele>
        <time>2014-02-03T15:08:03Z</time>
      </trkpt>
      <trkpt lat="48.13447" lon="6.73227">
        <ele>685.8</ele>
        <time>2014-02-03T15:08:20Z</time>
      </trkpt>
      <trkpt lat="48.13449" lon="6.7322">
        <ele>685.24</ele>
        <time>2014-02-03T15:08:43Z</time>
      </trkpt>
      <trkpt lat="48.13454" lon="6.73213">
        <ele>685.07</ele>
        <time>2014-02-03T15:09:01Z</time>
      </trkpt>
      <trkpt lat="48.13471" lon="6.73202">
        <ele>683.79</ele>
        <time>2014-02-03T15:09:19Z</time>
      </trkpt>
      <trkpt lat="48.13489" lon="6.73186">
        <ele>682.02</ele>
        <time>2014-02-03T15:09:37Z</time>
      </trkpt>
      <trkpt lat="48.13504" lon="6.73173">
        <ele>680.83</ele>
        <time>2014-02-03T15:09:50Z</time>
      </trkpt>
      <trkpt lat="48.1352" lon="6.73152">
        <ele>679.92</ele>
        <time>2014-02-03T15:10:06Z</time>
      </trkpt>
      <trkpt lat="48.13537" lon="6.7313">
        <ele>678.87</ele>
        <time>2014-02-03T15:10:24Z</time>
      </trkpt>
      <trkpt lat="48.1355" lon="6.73117">
        <ele>679.06</ele>
        <time>2014-02-03T15:10:38Z</time>
      </trkpt>
      <trkpt lat="48.13575" lon="6.73102">
        <ele>680.18</ele>
        <time>2014-02-03T15:11:00Z</time>
      </trkpt>
      <trkpt lat="48.13597" lon="6.73089">
        <ele>681.98</ele>
        <time>2014-02-03T15:11:20Z</time>
      </trkpt>
      <trkpt lat="48.13618" lon="6.73075">
        <ele>683.11</ele>
        <time>2014-02-03T15:11:39Z</time>
      </trkpt>
      <trkpt lat="48.1363" lon="6.73052">
        <ele>683.73</ele>
        <time>2014-02-03T15:11:57Z</time>
      </trkpt>
      <trkpt lat="48.13631" lon="6.73047">
        <ele>683.75</ele>
        <time>2014-02-03T15:11:59Z</time>
      </trkpt>
      <trkpt lat="48.13641" lon="6.73022">
        <ele>683.35</ele>
        <time>2014-02-03T15:12:14Z</time>
      </trkpt>
      <trkpt lat="48.13648" lon="6.72987">
        <ele>683.59</ele>
        <time>2014-02-03T15:12:33Z</time>
      </trkpt>
      <trkpt lat="48.13662" lon="6.7298">
        <ele>684.97</ele>
        <time>2014-02-03T15:12:50Z</time>
      </trkpt>
      <trkpt lat="48.13679" lon="6.72973">
        <ele>686.16</ele>
        <time>2014-02-03T15:13:08Z</time>
      </trkpt>
      <trkpt lat="48.13687" lon="6.72969">
        <ele>686.51</ele>
        <time>2014-02-03T15:13:26Z</time>
      </trkpt>
      <trkpt lat="48.13687" lon="6.72969">
        <ele>686.7</ele>
        <time>2014-02-03T15:13:54Z</time>
      </trkpt>
      <trkpt lat="48.13692" lon="6.72977">
        <ele>686.94</ele>
        <time>2014-02-03T15:14:17Z</time>
      </trkpt>
      <trkpt lat="48.13698" lon="6.73004">
        <ele>686.84</ele>
        <time>2014-02-03T15:14:34Z</time>
      </trkpt>
      <trkpt lat="48.13704" lon="6.73027">
        <ele>687.67</ele>
        <time>2014-02-03T15:14:47Z</time>
      </trkpt>
      <trkpt lat="48.13708" lon="6.73055">
        <ele>689.12</ele>
        <time>2014-02-03T15:15:03Z</time>
      </trkpt>
      <trkpt lat="48.13713" lon="6.73077">
        <ele>690.06</ele>
        <time>2014-02-03T15:15:15Z</time>
      </trkpt>
      <trkpt lat="48.13718" lon="6.73098">
        <ele>691.55</ele>
        <time>2014-02-03T15:15:30Z</time>
      </trkpt>
      <trkpt lat="48.1373" lon="6.73121">
        <ele>694.33</ele>
        <time>2014-02-03T15:15:48Z</time>
      </trkpt>
      <trkpt lat="48.13743" lon="6.73134">
        <ele>697.13</ele>
        <time>2014-02-03T15:16:07Z</time>
      </trkpt>
      <trkpt lat="48.13744" lon="6.73135">
        <ele>697.87</ele>
        <time>2014-02-03T15:16:15Z</time>
      </trkpt>
      <trkpt lat="48.13752" lon="6.73142">
        <ele>698.29</ele>
        <time>2014-02-03T15:16:33Z</time>
      </trkpt>
      <trkpt lat="48.13754" lon="6.73145">
        <ele>698.36</ele>
        <time>2014-02-03T15:16:51Z</time>
      </trkpt>
      <trkpt lat="48.13777" lon="6.73165">
        <ele>699.65</ele>
        <time>2014-02-03T15:17:13Z</time>
      </trkpt>
      <trkpt lat="48.13793" lon="6.73183">
        <ele>700.02</ele>
        <time>2014-02-03T15:17:32Z</time>
      </trkpt>
      <trkpt lat="48.13816" lon="6.73201">
        <ele>701.26</ele>
        <time>2014-02-03T15:17:53Z</time>
      </trkpt>
      <trkpt lat="48.13835" lon="6.73215">
        <ele>700.72</ele>
        <time>2014-02-03T15:18:13Z</time>
      </trkpt>
      <trkpt lat="48.13856" lon="6.73222">
        <ele>700.77</ele>
        <time>2014-02-03T15:18:33Z</time>
      </trkpt>
      <trkpt lat="48.13883" lon="6.73239">
        <ele>700.66</ele>
        <time>2014-02-03T15:18:55Z</time>
      </trkpt>
      <trkpt lat="48.13897" lon="6.73257">
        <ele>701.65</ele>
        <time>2014-02-03T15:19:11Z</time>
      </trkpt>
      <trkpt lat="48.13915" lon="6.73279">
        <ele>702.05</ele>
        <time>2014-02-03T15:19:30Z</time>
      </trkpt>
      <trkpt lat="48.13929" lon="6.73304">
        <ele>702.63</ele>
        <time>2014-02-03T15:19:48Z</time>
      </trkpt>
      <trkpt lat="48.13943" lon="6.7333">
        <ele>703.39</ele>
        <time>2014-02-03T15:20:07Z</time>
      </trkpt>
      <trkpt lat="48.13944" lon="6.73333">
        <ele>703.46</ele>
        <time>2014-02-03T15:20:09Z</time>
      </trkpt>
      <trkpt lat="48.13953" lon="6.73349">
        <ele>703.69</ele>
        <time>2014-02-03T15:20:22Z</time>
      </trkpt>
      <trkpt lat="48.13956" lon="6.73355">
        <ele>703.88</ele>
        <time>2014-02-03T15:20:27Z</time>
      </trkpt>
      <trkpt lat="48.13956" lon="6.73378">
        <ele>704.16</ele>
        <time>2014-02-03T15:20:41Z</time>
      </trkpt>
      <trkpt lat="48.13953" lon="6.73408">
        <ele>704.14</ele>
        <time>2014-02-03T15:21:00Z</time>
      </trkpt>
      <trkpt lat="48.13947" lon="6.73432">
        <ele>705.05</ele>
        <time>2014-02-03T15:21:14Z</time>
      </trkpt>
      <trkpt lat="48.13936" lon="6.73462">
        <ele>705.03</ele>
        <time>2014-02-03T15:21:34Z</time>
      </trkpt>
      <trkpt lat="48.13926" lon="6.73484">
        <ele>705.07</ele>
        <time>2014-02-03T15:21:52Z</time>
      </trkpt>
      <trkpt lat="48.13925" lon="6.73484">
        <ele>705.07</ele>
        <time>2014-02-03T15:22:19Z</time>
      </trkpt>
      <trkpt lat="48.13924" lon="6.73483">
        <ele>705.07</ele>
        <time>2014-02-03T15:22:24Z</time>
      </trkpt>
      <trkpt lat="48.13926" lon="6.73496">
        <ele>705.32</ele>
        <time>2014-02-03T15:22:53Z</time>
      </trkpt>
      <trkpt lat="48.1392" lon="6.73516">
        <ele>704.81</ele>
        <time>2014-02-03T15:23:24Z</time>
      </trkpt>
      <trkpt lat="48.13901" lon="6.73516">
        <ele>705.36</ele>
        <time>2014-02-03T15:23:39Z</time>
      </trkpt>
      <trkpt lat="48.13893" lon="6.73525">
        <ele>705.28</ele>
        <time>2014-02-03T15:23:52Z</time>
      </trkpt>
      <trkpt lat="48.13889" lon="6.7354">
        <ele>705.12</ele>
        <time>2014-02-03T15:24:23Z</time>
      </trkpt>
      <trkpt lat="48.13879" lon="6.73555">
        <ele>705.32</ele>
        <time>2014-02-03T15:24:46Z</time>
      </trkpt>
      <trkpt lat="48.13868" lon="6.73542">
        <ele>705.53</ele>
        <time>2014-02-03T15:25:13Z</time>
      </trkpt>
      <trkpt lat="48.13859" lon="6.73572">
        <ele>705.68</ele>
        <time>2014-02-03T15:25:31Z</time>
      </trkpt>
      <trkpt lat="48.13841" lon="6.73603">
        <ele>706.24</ele>
        <time>2014-02-03T15:25:53Z</time>
      </trkpt>
      <trkpt lat="48.13826" lon="6.7363">
        <ele>707.05</ele>
        <time>2014-02-03T15:26:14Z</time>
      </trkpt>
      <trkpt lat="48.13807" lon="6.73666">
        <ele>706.12</ele>
        <time>2014-02-03T15:26:39Z</time>
      </trkpt>
      <trkpt lat="48.13795" lon="6.737">
        <ele>705.97</ele>
        <time>2014-02-03T15:26:59Z</time>
      </trkpt>
      <trkpt lat="48.13781" lon="6.73734">
        <ele>707.13</ele>
        <time>2014-02-03T15:27:21Z</time>
      </trkpt>
      <trkpt lat="48.13772" lon="6.7377">
        <ele>708.24</ele>
        <time>2014-02-03T15:27:43Z</time>
      </trkpt>
      <trkpt lat="48.13764" lon="6.73797">
        <ele>709.43</ele>
        <time>2014-02-03T15:28:02Z</time>
      </trkpt>
      <trkpt lat="48.13752" lon="6.73827">
        <ele>710.31</ele>
        <time>2014-02-03T15:28:21Z</time>
      </trkpt>
      <trkpt lat="48.13743" lon="6.73862">
        <ele>710.14</ele>
        <time>2014-02-03T15:28:42Z</time>
      </trkpt>
      <trkpt lat="48.13737" lon="6.73897">
        <ele>709.97</ele>
        <time>2014-02-03T15:29:00Z</time>
      </trkpt>
      <trkpt lat="48.1373" lon="6.73924">
        <ele>710.31</ele>
        <time>2014-02-03T15:29:18Z</time>
      </trkpt>
      <trkpt lat="48.13723" lon="6.73954">
        <ele>710.66</ele>
        <time>2014-02-03T15:29:37Z</time>
      </trkpt>
      <trkpt lat="48.13713" lon="6.73994">
        <ele>710.79</ele>
        <time>2014-02-03T15:29:59Z</time>
      </trkpt>
      <trkpt lat="48.13709" lon="6.74032">
        <ele>711.86</ele>
        <time>2014-02-03T15:30:19Z</time>
      </trkpt>
      <trkpt lat="48.13701" lon="6.74068">
        <ele>712.77</ele>
        <time>2014-02-03T15:30:40Z</time>
      </trkpt>
      <trkpt lat="48.13697" lon="6.74101">
        <ele>713.44</ele>
        <time>2014-02-03T15:30:59Z</time>
      </trkpt>
      <trkpt lat="48.13693" lon="6.7413">
        <ele>713.79</ele>
        <time>2014-02-03T15:31:19Z</time>
      </trkpt>
      <trkpt lat="48.13689" lon="6.74171">
        <ele>713.99</ele>
        <time>2014-02-03T15:31:39Z</time>
      </trkpt>
      <trkpt lat="48.13689" lon="6.74206">
        <ele>714.17</ele>
        <time>2014-02-03T15:31:59Z</time>
      </trkpt>
      <trkpt lat="48.1369" lon="6.74239">
        <ele>714.62</ele>
        <time>2014-02-03T15:32:17Z</time>
      </trkpt>
      <trkpt lat="48.1369" lon="6.74275">
        <ele>715.16</ele>
        <time>2014-02-03T15:32:39Z</time>
      </trkpt>
      <trkpt lat="48.13696" lon="6.74304">
        <ele>713.94</ele>
        <time>2014-02-03T15:32:58Z</time>
      </trkpt>
      <trkpt lat="48.137" lon="6.74328">
        <ele>711.93</ele>
        <time>2014-02-03T15:33:15Z</time>
      </trkpt>
      <trkpt lat="48.13699" lon="6.74367">
        <ele>710.17</ele>
        <time>2014-02-03T15:33:36Z</time>
      </trkpt>
      <trkpt lat="48.13701" lon="6.74401">
        <ele>710.31</ele>
        <time>2014-02-03T15:33:57Z</time>
      </trkpt>
      <trkpt lat="48.13704" lon="6.74429">
        <ele>709.98</ele>
        <time>2014-02-03T15:34:15Z</time>
      </trkpt>
      <trkpt lat="48.13704" lon="6.74464">
        <ele>710.06</ele>
        <time>2014-02-03T15:34:35Z</time>
      </trkpt>
      <trkpt lat="48.13699" lon="6.74496">
        <ele>710.31</ele>
        <time>2014-02-03T15:34:56Z</time>
      </trkpt>
      <trkpt lat="48.13694" lon="6.74515">
        <ele>710.68</ele>
        <time>2014-02-03T15:35:15Z</time>
      </trkpt>
      <trkpt lat="48.13678" lon="6.74544">
        <ele>711.99</ele>
        <time>2014-02-03T15:35:37Z</time>
      </trkpt>
      <trkpt lat="48.13667" lon="6.74564">
        <ele>711.9</ele>
        <time>2014-02-03T15:35:54Z</time>
      </trkpt>
      <trkpt lat="48.13666" lon="6.74573">
        <ele>711.53</ele>
        <time>2014-02-03T15:36:00Z</time>
      </trkpt>
      <trkpt lat="48.13664" lon="6.74586">
        <ele>710.77</ele>
        <time>2014-02-03T15:36:17Z</time>
      </trkpt>
      <trkpt lat="48.13656" lon="6.74605">
        <ele>710.27</ele>
        <time>2014-02-03T15:36:31Z</time>
      </trkpt>
      <trkpt lat="48.13654" lon="6.74612">
        <ele>710.2</ele>
        <time>2014-02-03T15:36:35Z</time>
      </trkpt>
      <trkpt lat="48.13648" lon="6.7462">
        <ele>709.84</ele>
        <time>2014-02-03T15:36:42Z</time>
      </trkpt>
      <trkpt lat="48.13637" lon="6.74649">
        <ele>708.59</ele>
        <time>2014-02-03T15:37:03Z</time>
      </trkpt>
      <trkpt lat="48.13632" lon="6.7466">
        <ele>708.38</ele>
        <time>2014-02-03T15:37:16Z</time>
      </trkpt>
      <trkpt lat="48.13629" lon="6.7467">
        <ele>707.8</ele>
        <time>2014-02-03T15:37:29Z</time>
      </trkpt>
      <trkpt lat="48.13629" lon="6.74674">
        <ele>707.16</ele>
        <time>2014-02-03T15:37:48Z</time>
      </trkpt>
      <trkpt lat="48.13628" lon="6.7468">
        <ele>707.02</ele>
        <time>2014-02-03T15:37:52Z</time>
      </trkpt>
      <trkpt lat="48.13623" lon="6.74706">
        <ele>706.24</ele>
        <time>2014-02-03T15:38:09Z</time>
      </trkpt>
      <trkpt lat="48.1362" lon="6.74738">
        <ele>704.66</ele>
        <time>2014-02-03T15:38:27Z</time>
      </trkpt>
      <trkpt lat="48.13615" lon="6.74763">
        <ele>703.09</ele>
        <time>2014-02-03T15:38:43Z</time>
      </trkpt>
      <trkpt lat="48.13599" lon="6.74792">
        <ele>702.3</ele>
        <time>2014-02-03T15:39:02Z</time>
      </trkpt>
      <trkpt lat="48.13576" lon="6.74806">
        <ele>702.14</ele>
        <time>2014-02-03T15:39:21Z</time>
      </trkpt>
      <trkpt lat="48.13552" lon="6.74819">
        <ele>702.21</ele>
        <time>2014-02-03T15:39:42Z</time>
      </trkpt>
      <trkpt lat="48.13546" lon="6.74821">
        <ele>702.15</ele>
        <time>2014-02-03T15:39:47Z</time>
      </trkpt>
      <trkpt lat="48.1354" lon="6.74826">
        <ele>701.92</ele>
        <time>2014-02-03T15:39:54Z</time>
      </trkpt>
      <trkpt lat="48.13524" lon="6.7484">
        <ele>702.52</ele>
        <time>2014-02-03T15:40:11Z</time>
      </trkpt>
      <trkpt lat="48.135" lon="6.74861">
        <ele>702.65</ele>
        <time>2014-02-03T15:40:33Z</time>
      </trkpt>
      <trkpt lat="48.13484" lon="6.74884">
        <ele>702.85</ele>
        <time>2014-02-03T15:40:52Z</time>
      </trkpt>
      <trkpt lat="48.13484" lon="6.74886">
        <ele>702.88</ele>
        <time>2014-02-03T15:40:53Z</time>
      </trkpt>
      <trkpt lat="48.13477" lon="6.74909">
        <ele>703.57</ele>
        <time>2014-02-03T15:41:08Z</time>
      </trkpt>
      <trkpt lat="48.13476" lon="6.74942">
        <ele>704.33</ele>
        <time>2014-02-03T15:41:27Z</time>
      </trkpt>
      <trkpt lat="48.13476" lon="6.74947">
        <ele>704.42</ele>
        <time>2014-02-03T15:41:30Z</time>
      </trkpt>
      <trkpt lat="48.13474" lon="6.74961">
        <ele>704.58</ele>
        <time>2014-02-03T15:41:39Z</time>
      </trkpt>
      <trkpt lat="48.13474" lon="6.74968">
        <ele>704.71</ele>
        <time>2014-02-03T15:41:43Z</time>
      </trkpt>
      <trkpt lat="48.13471" lon="6.74993">
        <ele>705.25</ele>
        <time>2014-02-03T15:41:59Z</time>
      </trkpt>
      <trkpt lat="48.13469" lon="6.75005">
        <ele>705.82</ele>
        <time>2014-02-03T15:42:07Z</time>
      </trkpt>
      <trkpt lat="48.13467" lon="6.75012">
        <ele>705.95</ele>
        <time>2014-02-03T15:42:11Z</time>
      </trkpt>
      <trkpt lat="48.13465" lon="6.75021">
        <ele>706.13</ele>
        <time>2014-02-03T15:42:19Z</time>
      </trkpt>
      <trkpt lat="48.13464" lon="6.75026">
        <ele>706.19</ele>
        <time>2014-02-03T15:42:22Z</time>
      </trkpt>
      <trkpt lat="48.13458" lon="6.7505">
        <ele>705.61</ele>
        <time>2014-02-03T15:42:37Z</time>
      </trkpt>
      <trkpt lat="48.13457" lon="6.75055">
        <ele>705.54</ele>
        <time>2014-02-03T15:42:40Z</time>
      </trkpt>
      <trkpt lat="48.1345" lon="6.75078">
        <ele>705.56</ele>
        <time>2014-02-03T15:42:54Z</time>
      </trkpt>
      <trkpt lat="48.13454" lon="6.75115">
        <ele>705.03</ele>
        <time>2014-02-03T15:43:15Z</time>
      </trkpt>
      <trkpt lat="48.13465" lon="6.75143">
        <ele>704.69</ele>
        <time>2014-02-03T15:43:36Z</time>
      </trkpt>
      <trkpt lat="48.13467" lon="6.75149">
        <ele>704.68</ele>
        <time>2014-02-03T15:43:46Z</time>
      </trkpt>
      <trkpt lat="48.1347" lon="6.75154">
        <ele>704.68</ele>
        <time>2014-02-03T15:43:50Z</time>
      </trkpt>
      <trkpt lat="48.13481" lon="6.7517">
        <ele>704.88</ele>
        <time>2014-02-03T15:44:06Z</time>
      </trkpt>
      <trkpt lat="48.13488" lon="6.75176">
        <ele>705.33</ele>
        <time>2014-02-03T15:44:17Z</time>
      </trkpt>
      <trkpt lat="48.13492" lon="6.75178">
        <ele>705.36</ele>
        <time>2014-02-03T15:44:20Z</time>
      </trkpt>
      <trkpt lat="48.13504" lon="6.75199">
        <ele>705.68</ele>
        <time>2014-02-03T15:44:38Z</time>
      </trkpt>
      <trkpt lat="48.13505" lon="6.7521">
        <ele>705.73</ele>
        <time>2014-02-03T15:45:04Z</time>
      </trkpt>
      <trkpt lat="48.13506" lon="6.75216">
        <ele>705.62</ele>
        <time>2014-02-03T15:45:08Z</time>
      </trkpt>
      <trkpt lat="48.1351" lon="6.75233">
        <ele>705.91</ele>
        <time>2014-02-03T15:45:29Z</time>
      </trkpt>
      <trkpt lat="48.1351" lon="6.75238">
        <ele>706.25</ele>
        <time>2014-02-03T15:45:54Z</time>
      </trkpt>
      <trkpt lat="48.1351" lon="6.75245">
        <ele>706.24</ele>
        <time>2014-02-03T15:46:17Z</time>
      </trkpt>
      <trkpt lat="48.13508" lon="6.75252">
        <ele>706.33</ele>
        <time>2014-02-03T15:46:21Z</time>
      </trkpt>
      <trkpt lat="48.13499" lon="6.75268">
        <ele>707.17</ele>
        <time>2014-02-03T15:46:34Z</time>
      </trkpt>
      <trkpt lat="48.13496" lon="6.7527">
        <ele>707.31</ele>
        <time>2014-02-03T15:46:37Z</time>
      </trkpt>
      <trkpt lat="48.13475" lon="6.75282">
        <ele>708.69</ele>
        <time>2014-02-03T15:46:56Z</time>
      </trkpt>
      <trkpt lat="48.13458" lon="6.75304">
        <ele>710.45</ele>
        <time>2014-02-03T15:47:13Z</time>
      </trkpt>
      <trkpt lat="48.13439" lon="6.75323">
        <ele>711.82</ele>
        <time>2014-02-03T15:47:31Z</time>
      </trkpt>
      <trkpt lat="48.13421" lon="6.75339">
        <ele>713.08</ele>
        <time>2014-02-03T15:47:49Z</time>
      </trkpt>
      <trkpt lat="48.13412" lon="6.7535">
        <ele>714.12</ele>
        <time>2014-02-03T15:48:03Z</time>
      </trkpt>
      <trkpt lat="48.13411" lon="6.75351">
        <ele>714.15</ele>
        <time>2014-02-03T15:48:04Z</time>
      </trkpt>
      <trkpt lat="48.13386" lon="6.75369">
        <ele>715.09</ele>
        <time>2014-02-03T15:48:26Z</time>
      </trkpt>
      <trkpt lat="48.13366" lon="6.75397">
        <ele>716.13</ele>
        <time>2014-02-03T15:48:47Z</time>
      </trkpt>
      <trkpt lat="48.13347" lon="6.7542">
        <ele>717.12</ele>
        <time>2014-02-03T15:49:06Z</time>
      </trkpt>
      <trkpt lat="48.1333" lon="6.7545">
        <ele>717.98</ele>
        <time>2014-02-03T15:49:27Z</time>
      </trkpt>
      <trkpt lat="48.13318" lon="6.75485">
        <ele>718.48</ele>
        <time>2014-02-03T15:49:47Z</time>
      </trkpt>
      <trkpt lat="48.13314" lon="6.7552">
        <ele>718.93</ele>
        <time>2014-02-03T15:50:05Z</time>
      </trkpt>
      <trkpt lat="48.13308" lon="6.75549">
        <ele>719.78</ele>
        <time>2014-02-03T15:50:21Z</time>
      </trkpt>
      <trkpt lat="48.13299" lon="6.75588">
        <ele>720.71</ele>
        <time>2014-02-03T15:50:41Z</time>
      </trkpt>
      <trkpt lat="48.13293" lon="6.7563">
        <ele>721.61</ele>
        <time>2014-02-03T15:51:03Z</time>
      </trkpt>
      <trkpt lat="48.13284" lon="6.75657">
        <ele>722.1</ele>
        <time>2014-02-03T15:51:21Z</time>
      </trkpt>
      <trkpt lat="48.13283" lon="6.75658">
        <ele>722.87</ele>
        <time>2014-02-03T15:51:42Z</time>
      </trkpt>
      <trkpt lat="48.13281" lon="6.75665">
        <ele>722.55</ele>
        <time>2014-02-03T15:52:00Z</time>
      </trkpt>
      <trkpt lat="48.1328" lon="6.75668">
        <ele>722.62</ele>
        <time>2014-02-03T15:52:02Z</time>
      </trkpt>
      <trkpt lat="48.13278" lon="6.75675">
        <ele>722.85</ele>
        <time>2014-02-03T15:52:08Z</time>
      </trkpt>
      <trkpt lat="48.13273" lon="6.75691">
        <ele>723.05</ele>
        <time>2014-02-03T15:52:19Z</time>
      </trkpt>
      <trkpt lat="48.13261" lon="6.75731">
        <ele>723.69</ele>
        <time>2014-02-03T15:52:42Z</time>
      </trkpt>
      <trkpt lat="48.13246" lon="6.75757">
        <ele>724.22</ele>
        <time>2014-02-03T15:53:00Z</time>
      </trkpt>
      <trkpt lat="48.13228" lon="6.75755">
        <ele>722.81</ele>
        <time>2014-02-03T15:53:16Z</time>
      </trkpt>
      <trkpt lat="48.13205" lon="6.7575">
        <ele>722.18</ele>
        <time>2014-02-03T15:53:36Z</time>
      </trkpt>
      <trkpt lat="48.13183" lon="6.75769">
        <ele>721.72</ele>
        <time>2014-02-03T15:53:57Z</time>
      </trkpt>
      <trkpt lat="48.13157" lon="6.75784">
        <ele>721.26</ele>
        <time>2014-02-03T15:54:19Z</time>
      </trkpt>
      <trkpt lat="48.13129" lon="6.75788">
        <ele>720.49</ele>
        <time>2014-02-03T15:54:42Z</time>
      </trkpt>
      <trkpt lat="48.13104" lon="6.75781">
        <ele>720.4</ele>
        <time>2014-02-03T15:55:02Z</time>
      </trkpt>
      <trkpt lat="48.13081" lon="6.75775">
        <ele>719.2</ele>
        <time>2014-02-03T15:55:21Z</time>
      </trkpt>
      <trkpt lat="48.1307" lon="6.75775">
        <ele>718.6</ele>
        <time>2014-02-03T15:55:39Z</time>
      </trkpt>
      <trkpt lat="48.1307" lon="6.75776">
        <ele>719.55</ele>
        <time>2014-02-03T15:56:10Z</time>
      </trkpt>
      <trkpt lat="48.13068" lon="6.75775">
        <ele>719.57</ele>
        <time>2014-02-03T15:56:19Z</time>
      </trkpt>
      <trkpt lat="48.13047" lon="6.75772">
        <ele>719.09</ele>
        <time>2014-02-03T15:56:37Z</time>
      </trkpt>
      <trkpt lat="48.13029" lon="6.75765">
        <ele>718.91</ele>
        <time>2014-02-03T15:56:53Z</time>
      </trkpt>
      <trkpt lat="48.13006" lon="6.75747">
        <ele>718.39</ele>
        <time>2014-02-03T15:57:13Z</time>
      </trkpt>
      <trkpt lat="48.12985" lon="6.75728">
        <ele>717.66</ele>
        <time>2014-02-03T15:57:33Z</time>
      </trkpt>
      <trkpt lat="48.12962" lon="6.75712">
        <ele>716.36</ele>
        <time>2014-02-03T15:57:54Z</time>
      </trkpt>
      <trkpt lat="48.1294" lon="6.75694">
        <ele>715.79</ele>
        <time>2014-02-03T15:58:14Z</time>
      </trkpt>
      <trkpt lat="48.1292" lon="6.75673">
        <ele>714.58</ele>
        <time>2014-02-03T15:58:34Z</time>
      </trkpt>
      <trkpt lat="48.12904" lon="6.7566">
        <ele>713.76</ele>
        <time>2014-02-03T15:58:50Z</time>
      </trkpt>
      <trkpt lat="48.12893" lon="6.75653">
        <ele>713.26</ele>
        <time>2014-02-03T15:59:08Z</time>
      </trkpt>
      <trkpt lat="48.12886" lon="6.75649">
        <ele>712.79</ele>
        <time>2014-02-03T15:59:20Z</time>
      </trkpt>
      <trkpt lat="48.12872" lon="6.75641">
        <ele>712.61</ele>
        <time>2014-02-03T15:59:37Z</time>
      </trkpt>
      <trkpt lat="48.1285" lon="6.7563">
        <ele>711.72</ele>
        <time>2014-02-03T15:59:55Z</time>
      </trkpt>
      <trkpt lat="48.12826" lon="6.75617">
        <ele>711.57</ele>
        <time>2014-02-03T16:00:15Z</time>
      </trkpt>
      <trkpt lat="48.12806" lon="6.75605">
        <ele>711.22</ele>
        <time>2014-02-03T16:00:33Z</time>
      </trkpt>
      <trkpt lat="48.12796" lon="6.75602">
        <ele>711.08</ele>
        <time>2014-02-03T16:00:50Z</time>
      </trkpt>
      <trkpt lat="48.12794" lon="6.75604">
        <ele>711.33</ele>
        <time>2014-02-03T16:01:45Z</time>
      </trkpt>
      <trkpt lat="48.12781" lon="6.75606">
        <ele>711.26</ele>
        <time>2014-02-03T16:02:02Z</time>
      </trkpt>
      <trkpt lat="48.12758" lon="6.75616">
        <ele>711.28</ele>
        <time>2014-02-03T16:02:23Z</time>
      </trkpt>
      <trkpt lat="48.12738" lon="6.75641">
        <ele>712.06</ele>
        <time>2014-02-03T16:02:44Z</time>
      </trkpt>
      <trkpt lat="48.12718" lon="6.75668">
        <ele>711.81</ele>
        <time>2014-02-03T16:03:05Z</time>
      </trkpt>
      <trkpt lat="48.12699" lon="6.75688">
        <ele>710.73</ele>
        <time>2014-02-03T16:03:24Z</time>
      </trkpt>
      <trkpt lat="48.12681" lon="6.75695">
        <ele>709.09</ele>
        <time>2014-02-03T16:03:41Z</time>
      </trkpt>
      <trkpt lat="48.12664" lon="6.75694">
        <ele>707.9</ele>
        <time>2014-02-03T16:03:55Z</time>
      </trkpt>
      <trkpt lat="48.12646" lon="6.7569">
        <ele>706.85</ele>
        <time>2014-02-03T16:04:12Z</time>
      </trkpt>
      <trkpt lat="48.12628" lon="6.75683">
        <ele>705.78</ele>
        <time>2014-02-03T16:04:28Z</time>
      </trkpt>
      <trkpt lat="48.12626" lon="6.75682">
        <ele>705.64</ele>
        <time>2014-02-03T16:04:30Z</time>
      </trkpt>
      <trkpt lat="48.1262" lon="6.75681">
        <ele>705.5</ele>
        <time>2014-02-03T16:04:35Z</time>
      </trkpt>
      <trkpt lat="48.126" lon="6.75677">
        <ele>703.95</ele>
        <time>2014-02-03T16:04:51Z</time>
      </trkpt>
      <trkpt lat="48.12583" lon="6.75682">
        <ele>703.18</ele>
        <time>2014-02-03T16:05:05Z</time>
      </trkpt>
      <trkpt lat="48.12579" lon="6.75683">
        <ele>702.85</ele>
        <time>2014-02-03T16:05:09Z</time>
      </trkpt>
      <trkpt lat="48.12571" lon="6.75681">
        <ele>701.74</ele>
        <time>2014-02-03T16:05:17Z</time>
      </trkpt>
      <trkpt lat="48.12553" lon="6.75675">
        <ele>699.71</ele>
        <time>2014-02-03T16:05:33Z</time>
      </trkpt>
      <trkpt lat="48.12547" lon="6.75673">
        <ele>698.94</ele>
        <time>2014-02-03T16:05:38Z</time>
      </trkpt>
      <trkpt lat="48.1254" lon="6.75668">
        <ele>698.26</ele>
        <time>2014-02-03T16:05:43Z</time>
      </trkpt>
      <trkpt lat="48.12522" lon="6.7566">
        <ele>696.86</ele>
        <time>2014-02-03T16:06:00Z</time>
      </trkpt>
      <trkpt lat="48.12513" lon="6.75656">
        <ele>695.81</ele>
        <time>2014-02-03T16:06:07Z</time>
      </trkpt>
      <trkpt lat="48.12492" lon="6.75649">
        <ele>694.42</ele>
        <time>2014-02-03T16:06:26Z</time>
      </trkpt>
      <trkpt lat="48.12474" lon="6.75652">
        <ele>693.04</ele>
        <time>2014-02-03T16:06:41Z</time>
      </trkpt>
      <trkpt lat="48.12456" lon="6.75658">
        <ele>690.9</ele>
        <time>2014-02-03T16:06:57Z</time>
      </trkpt>
      <trkpt lat="48.12439" lon="6.75668">
        <ele>688.79</ele>
        <time>2014-02-03T16:07:16Z</time>
      </trkpt>
      <trkpt lat="48.1243" lon="6.75674">
        <ele>687.7</ele>
        <time>2014-02-03T16:07:24Z</time>
      </trkpt>
      <trkpt lat="48.12411" lon="6.75665">
        <ele>685.04</ele>
        <time>2014-02-03T16:07:45Z</time>
      </trkpt>
      <trkpt lat="48.12406" lon="6.75662">
        <ele>684.44</ele>
        <time>2014-02-03T16:07:51Z</time>
      </trkpt>
      <trkpt lat="48.12388" lon="6.75648">
        <ele>682.02</ele>
        <time>2014-02-03T16:08:09Z</time>
      </trkpt>
      <trkpt lat="48.12374" lon="6.75639">
        <ele>680.33</ele>
        <time>2014-02-03T16:08:26Z</time>
      </trkpt>
      <trkpt lat="48.12371" lon="6.75646">
        <ele>680.09</ele>
        <time>2014-02-03T16:08:56Z</time>
      </trkpt>
      <trkpt lat="48.12364" lon="6.75642">
        <ele>679.32</ele>
        <time>2014-02-03T16:09:31Z</time>
      </trkpt>
      <trkpt lat="48.12348" lon="6.75624">
        <ele>677.02</ele>
        <time>2014-02-03T16:09:50Z</time>
      </trkpt>
      <trkpt lat="48.12332" lon="6.75609">
        <ele>674.17</ele>
        <time>2014-02-03T16:10:06Z</time>
      </trkpt>
      <trkpt lat="48.12315" lon="6.75596">
        <ele>671.41</ele>
        <time>2014-02-03T16:10:24Z</time>
      </trkpt>
      <trkpt lat="48.12295" lon="6.75577">
        <ele>669.03</ele>
        <time>2014-02-03T16:10:44Z</time>
      </trkpt>
      <trkpt lat="48.12282" lon="6.7555">
        <ele>665.95</ele>
        <time>2014-02-03T16:11:04Z</time>
      </trkpt>
      <trkpt lat="48.12277" lon="6.75536">
        <ele>664.18</ele>
        <time>2014-02-03T16:11:15Z</time>
      </trkpt>
      <trkpt lat="48.12257" lon="6.75512">
        <ele>661.19</ele>
        <time>2014-02-03T16:11:35Z</time>
      </trkpt>
      <trkpt lat="48.12237" lon="6.7549">
        <ele>658.08</ele>
        <time>2014-02-03T16:11:51Z</time>
      </trkpt>
      <trkpt lat="48.12222" lon="6.75474">
        <ele>654.99</ele>
        <time>2014-02-03T16:12:08Z</time>
      </trkpt>
      <trkpt lat="48.12207" lon="6.7545">
        <ele>651.89</ele>
        <time>2014-02-03T16:12:25Z</time>
      </trkpt>
      <trkpt lat="48.12198" lon="6.75429">
        <ele>649.18</ele>
        <time>2014-02-03T16:12:42Z</time>
      </trkpt>
      <trkpt lat="48.1219" lon="6.75414">
        <ele>647.63</ele>
        <time>2014-02-03T16:12:52Z</time>
      </trkpt>
      <trkpt lat="48.12182" lon="6.75407">
        <ele>646.46</ele>
        <time>2014-02-03T16:12:59Z</time>
      </trkpt>
      <trkpt lat="48.12169" lon="6.75405">
        <ele>643.83</ele>
        <time>2014-02-03T16:13:13Z</time>
      </trkpt>
      <trkpt lat="48.12163" lon="6.75427">
        <ele>640.76</ele>
        <time>2014-02-03T16:13:30Z</time>
      </trkpt>
      <trkpt lat="48.12153" lon="6.75438">
        <ele>639.17</ele>
        <time>2014-02-03T16:13:41Z</time>
      </trkpt>
      <trkpt lat="48.12132" lon="6.75457">
        <ele>636.05</ele>
        <time>2014-02-03T16:13:59Z</time>
      </trkpt>
      <trkpt lat="48.12124" lon="6.75463">
        <ele>634.85</ele>
        <time>2014-02-03T16:14:07Z</time>
      </trkpt>
      <trkpt lat="48.12101" lon="6.75468">
        <ele>632.11</ele>
        <time>2014-02-03T16:14:25Z</time>
      </trkpt>
      <trkpt lat="48.12082" lon="6.75475">
        <ele>630.14</ele>
        <time>2014-02-03T16:14:41Z</time>
      </trkpt>
      <trkpt lat="48.12062" lon="6.75482">
        <ele>628.92</ele>
        <time>2014-02-03T16:14:56Z</time>
      </trkpt>
      <trkpt lat="48.12059" lon="6.75481">
        <ele>628.69</ele>
        <time>2014-02-03T16:14:59Z</time>
      </trkpt>
      <trkpt lat="48.12044" lon="6.75476">
        <ele>627.58</ele>
        <time>2014-02-03T16:15:14Z</time>
      </trkpt>
      <trkpt lat="48.12029" lon="6.75471">
        <ele>625.71</ele>
        <time>2014-02-03T16:15:34Z</time>
      </trkpt>
      <trkpt lat="48.12016" lon="6.75481">
        <ele>624.69</ele>
        <time>2014-02-03T16:15:56Z</time>
      </trkpt>
      <trkpt lat="48.11997" lon="6.75486">
        <ele>623.4</ele>
        <time>2014-02-03T16:16:17Z</time>
      </trkpt>
      <trkpt lat="48.11982" lon="6.75477">
        <ele>622.75</ele>
        <time>2014-02-03T16:16:32Z</time>
      </trkpt>
      <trkpt lat="48.11967" lon="6.75463">
        <ele>622.04</ele>
        <time>2014-02-03T16:16:45Z</time>
      </trkpt>
      <trkpt lat="48.11965" lon="6.75458">
        <ele>622.14</ele>
        <time>2014-02-03T16:16:48Z</time>
      </trkpt>
      <trkpt lat="48.11964" lon="6.75455">
        <ele>622.14</ele>
        <time>2014-02-03T16:16:50Z</time>
      </trkpt>
      <trkpt lat="48.11955" lon="6.75428">
        <ele>622.06</ele>
        <time>2014-02-03T16:17:06Z</time>
      </trkpt>
      <trkpt lat="48.11948" lon="6.75403">
        <ele>621.87</ele>
        <time>2014-02-03T16:17:20Z</time>
      </trkpt>
      <trkpt lat="48.11942" lon="6.75374">
        <ele>621.31</ele>
        <time>2014-02-03T16:17:37Z</time>
      </trkpt>
      <trkpt lat="48.11931" lon="6.75347">
        <ele>620.18</ele>
        <time>2014-02-03T16:17:55Z</time>
      </trkpt>
      <trkpt lat="48.1192" lon="6.75327">
        <ele>619.56</ele>
        <time>2014-02-03T16:18:12Z</time>
      </trkpt>
      <trkpt lat="48.11904" lon="6.75303">
        <ele>618.04</ele>
        <time>2014-02-03T16:18:32Z</time>
      </trkpt>
      <trkpt lat="48.11889" lon="6.75287">
        <ele>617.13</ele>
        <time>2014-02-03T16:18:50Z</time>
      </trkpt>
      <trkpt lat="48.11877" lon="6.75271">
        <ele>616.62</ele>
        <time>2014-02-03T16:19:03Z</time>
      </trkpt>
      <trkpt lat="48.11855" lon="6.75239">
        <ele>616.33</ele>
        <time>2014-02-03T16:19:22Z</time>
      </trkpt>
      <trkpt lat="48.11836" lon="6.75217">
        <ele>616.4</ele>
        <time>2014-02-03T16:19:40Z</time>
      </trkpt>
      <trkpt lat="48.11815" lon="6.75194">
        <ele>616.18</ele>
        <time>2014-02-03T16:20:01Z</time>
      </trkpt>
      <trkpt lat="48.11792" lon="6.75169">
        <ele>615.8</ele>
        <time>2014-02-03T16:20:24Z</time>
      </trkpt>
      <trkpt lat="48.11769" lon="6.75152">
        <ele>616.2</ele>
        <time>2014-02-03T16:20:44Z</time>
      </trkpt>
      <trkpt lat="48.11758" lon="6.75146">
        <ele>616.75</ele>
        <time>2014-02-03T16:20:53Z</time>
      </trkpt>
      <trkpt lat="48.11739" lon="6.75143">
        <ele>617.31</ele>
        <time>2014-02-03T16:21:10Z</time>
      </trkpt>
      <trkpt lat="48.1172" lon="6.75143">
        <ele>618.58</ele>
        <time>2014-02-03T16:21:25Z</time>
      </trkpt>
      <trkpt lat="48.11704" lon="6.75128">
        <ele>619.65</ele>
        <time>2014-02-03T16:21:42Z</time>
      </trkpt>
      <trkpt lat="48.11693" lon="6.75102">
        <ele>620.42</ele>
        <time>2014-02-03T16:21:59Z</time>
      </trkpt>
      <trkpt lat="48.11683" lon="6.75078">
        <ele>620.82</ele>
        <time>2014-02-03T16:22:16Z</time>
      </trkpt>
      <trkpt lat="48.11669" lon="6.75041">
        <ele>620.92</ele>
        <time>2014-02-03T16:22:39Z</time>
      </trkpt>
      <trkpt lat="48.11654" lon="6.75021">
        <ele>621.57</ele>
        <time>2014-02-03T16:22:58Z</time>
      </trkpt>
      <trkpt lat="48.11652" lon="6.75023">
        <ele>621.74</ele>
        <time>2014-02-03T16:23:23Z</time>
      </trkpt>
      <trkpt lat="48.11651" lon="6.75023">
        <ele>621.77</ele>
        <time>2014-02-03T16:23:24Z</time>
      </trkpt>
      <trkpt lat="48.11644" lon="6.75027">
        <ele>622.32</ele>
        <time>2014-02-03T16:23:32Z</time>
      </trkpt>
      <trkpt lat="48.11636" lon="6.75037">
        <ele>623.03</ele>
        <time>2014-02-03T16:23:46Z</time>
      </trkpt>
      <trkpt lat="48.11634" lon="6.75041">
        <ele>623.04</ele>
        <time>2014-02-03T16:24:25Z</time>
      </trkpt>
      <trkpt lat="48.1162" lon="6.75055">
        <ele>623.81</ele>
        <time>2014-02-03T16:24:40Z</time>
      </trkpt>
      <trkpt lat="48.11611" lon="6.75062">
        <ele>624.54</ele>
        <time>2014-02-03T16:24:56Z</time>
      </trkpt>
      <trkpt lat="48.116" lon="6.75072">
        <ele>624.89</ele>
        <time>2014-02-03T16:25:11Z</time>
      </trkpt>
      <trkpt lat="48.11589" lon="6.75081">
        <ele>624.56</ele>
        <time>2014-02-03T16:25:26Z</time>
      </trkpt>
      <trkpt lat="48.11574" lon="6.75082">
        <ele>623.88</ele>
        <time>2014-02-03T16:25:43Z</time>
      </trkpt>
      <trkpt lat="48.1157" lon="6.75083">
        <ele>623.67</ele>
        <time>2014-02-03T16:25:47Z</time>
      </trkpt>
      <trkpt lat="48.11564" lon="6.75084">
        <ele>623.31</ele>
        <time>2014-02-03T16:25:53Z</time>
      </trkpt>
      <trkpt lat="48.11559" lon="6.75082">
        <ele>623.02</ele>
        <time>2014-02-03T16:26:05Z</time>
      </trkpt>
      <trkpt lat="48.11548" lon="6.75072">
        <ele>621.89</ele>
        <time>2014-02-03T16:26:21Z</time>
      </trkpt>
      <trkpt lat="48.11538" lon="6.75064">
        <ele>620.94</ele>
        <time>2014-02-03T16:26:38Z</time>
      </trkpt>
      <trkpt lat="48.11537" lon="6.75055">
        <ele>620.58</ele>
        <time>2014-02-03T16:26:44Z</time>
      </trkpt>
      <trkpt lat="48.11536" lon="6.75037">
        <ele>619.9</ele>
        <time>2014-02-03T16:27:00Z</time>
      </trkpt>
      <trkpt lat="48.11534" lon="6.75016">
        <ele>619.67</ele>
        <time>2014-02-03T16:27:21Z</time>
      </trkpt>
      <trkpt lat="48.11534" lon="6.74998">
        <ele>620.08</ele>
        <time>2014-02-03T16:27:39Z</time>
      </trkpt>
      <trkpt lat="48.11533" lon="6.74987">
        <ele>620.4</ele>
        <time>2014-02-03T16:27:56Z</time>
      </trkpt>
      <trkpt lat="48.11533" lon="6.74964">
        <ele>621.55</ele>
        <time>2014-02-03T16:28:15Z</time>
      </trkpt>
      <trkpt lat="48.11532" lon="6.74941">
        <ele>622.16</ele>
        <time>2014-02-03T16:28:35Z</time>
      </trkpt>
      <trkpt lat="48.11533" lon="6.74916">
        <ele>623.39</ele>
        <time>2014-02-03T16:28:50Z</time>
      </trkpt>
      <trkpt lat="48.11534" lon="6.74894">
        <ele>624.19</ele>
        <time>2014-02-03T16:29:12Z</time>
      </trkpt>
      <trkpt lat="48.11538" lon="6.7486">
        <ele>625.84</ele>
        <time>2014-02-03T16:29:32Z</time>
      </trkpt>
      <trkpt lat="48.11538" lon="6.74851">
        <ele>626.01</ele>
        <time>2014-02-03T16:29:36Z</time>
      </trkpt>
      <trkpt lat="48.11539" lon="6.74821">
        <ele>625.25</ele>
        <time>2014-02-03T16:29:53Z</time>
      </trkpt>
      <trkpt lat="48.11542" lon="6.74782">
        <ele>623.62</ele>
        <time>2014-02-03T16:30:13Z</time>
      </trkpt>
      <trkpt lat="48.11543" lon="6.74749">
        <ele>621.96</ele>
        <time>2014-02-03T16:30:30Z</time>
      </trkpt>
      <trkpt lat="48.11544" lon="6.74715">
        <ele>620.46</ele>
        <time>2014-02-03T16:30:46Z</time>
      </trkpt>
      <trkpt lat="48.11548" lon="6.74682">
        <ele>619.03</ele>
        <time>2014-02-03T16:31:02Z</time>
      </trkpt>
      <trkpt lat="48.1155" lon="6.74656">
        <ele>618.01</ele>
        <time>2014-02-03T16:31:15Z</time>
      </trkpt>
      <trkpt lat="48.11555" lon="6.74615">
        <ele>616.71</ele>
        <time>2014-02-03T16:31:35Z</time>
      </trkpt>
      <trkpt lat="48.11562" lon="6.74576">
        <ele>615.55</ele>
        <time>2014-02-03T16:31:55Z</time>
      </trkpt>
      <trkpt lat="48.11567" lon="6.74555">
        <ele>614.87</ele>
        <time>2014-02-03T16:32:06Z</time>
      </trkpt>
      <trkpt lat="48.11572" lon="6.7454">
        <ele>614.11</ele>
        <time>2014-02-03T16:32:24Z</time>
      </trkpt>
      <trkpt lat="48.11579" lon="6.74518">
        <ele>613.35</ele>
        <time>2014-02-03T16:32:48Z</time>
      </trkpt>
      <trkpt lat="48.11579" lon="6.74507">
        <ele>612.74</ele>
        <time>2014-02-03T16:32:55Z</time>
      </trkpt>
      <trkpt lat="48.11576" lon="6.74479">
        <ele>610.89</ele>
        <time>2014-02-03T16:33:12Z</time>
      </trkpt>
      <trkpt lat="48.11568" lon="6.74461">
        <ele>609.63</ele>
        <time>2014-02-03T16:33:28Z</time>
      </trkpt>
      <trkpt lat="48.11563" lon="6.74452">
        <ele>609.11</ele>
        <time>2014-02-03T16:34:01Z</time>
      </trkpt>
      <trkpt lat="48.11562" lon="6.74451">
        <ele>609.08</ele>
        <time>2014-02-03T16:34:02Z</time>
      </trkpt>
      <trkpt lat="48.1155" lon="6.7442">
        <ele>606.06</ele>
        <time>2014-02-03T16:34:22Z</time>
      </trkpt>
      <trkpt lat="48.1154" lon="6.74409">
        <ele>603.65</ele>
        <time>2014-02-03T16:34:33Z</time>
      </trkpt>
      <trkpt lat="48.11531" lon="6.74395">
        <ele>600.42</ele>
        <time>2014-02-03T16:34:46Z</time>
      </trkpt>
      <trkpt lat="48.1153" lon="6.74391">
        <ele>599.75</ele>
        <time>2014-02-03T16:34:49Z</time>
      </trkpt>
      <trkpt lat="48.11529" lon="6.74367">
        <ele>596.44</ele>
        <time>2014-02-03T16:35:04Z</time>
      </trkpt>
      <trkpt lat="48.11525" lon="6.74337">
        <ele>593.95</ele>
        <time>2014-02-03T16:35:19Z</time>
      </trkpt>
      <trkpt lat="48.11524" lon="6.74306">
        <ele>590.98</ele>
        <time>2014-02-03T16:35:37Z</time>
      </trkpt>
      <trkpt lat="48.1152" lon="6.74291">
        <ele>588.75</ele>
        <time>2014-02-03T16:35:53Z</time>
      </trkpt>
      <trkpt lat="48.11517" lon="6.7428">
        <ele>588.39</ele>
        <time>2014-02-03T16:36:13Z</time>
      </trkpt>
      <trkpt lat="48.11513" lon="6.74263">
        <ele>586.13</ele>
        <time>2014-02-03T16:36:30Z</time>
      </trkpt>
      <trkpt lat="48.11513" lon="6.74242">
        <ele>584.48</ele>
        <time>2014-02-03T16:36:46Z</time>
      </trkpt>
      <trkpt lat="48.11512" lon="6.74233">
        <ele>583.65</ele>
        <time>2014-02-03T16:36:52Z</time>
      </trkpt>
      <trkpt lat="48.11515" lon="6.74211">
        <ele>581.37</ele>
        <time>2014-02-03T16:37:07Z</time>
      </trkpt>
      <trkpt lat="48.11515" lon="6.74203">
        <ele>580.4</ele>
        <time>2014-02-03T16:37:13Z</time>
      </trkpt>
      <trkpt lat="48.11519" lon="6.74182">
        <ele>578.15</ele>
        <time>2014-02-03T16:37:28Z</time>
      </trkpt>
      <trkpt lat="48.11522" lon="6.74173">
        <ele>577.28</ele>
        <time>2014-02-03T16:37:35Z</time>
      </trkpt>
      <trkpt lat="48.11528" lon="6.74159">
        <ele>576.05</ele>
        <time>2014-02-03T16:37:48Z</time>
      </trkpt>
      <trkpt lat="48.1153" lon="6.74133">
        <ele>573.63</ele>
        <time>2014-02-03T16:38:08Z</time>
      </trkpt>
      <trkpt lat="48.1153" lon="6.7413">
        <ele>573.4</ele>
        <time>2014-02-03T16:38:10Z</time>
      </trkpt>
      <trkpt lat="48.11529" lon="6.74123">
        <ele>572.68</ele>
        <time>2014-02-03T16:38:15Z</time>
      </trkpt>
      <trkpt lat="48.11521" lon="6.74101">
        <ele>569.92</ele>
        <time>2014-02-03T16:38:31Z</time>
      </trkpt>
      <trkpt lat="48.11511" lon="6.74088">
        <ele>566.98</ele>
        <time>2014-02-03T16:38:47Z</time>
      </trkpt>
      <trkpt lat="48.11506" lon="6.74086">
        <ele>565.04</ele>
        <time>2014-02-03T16:39:04Z</time>
      </trkpt>
      <trkpt lat="48.115" lon="6.74078">
        <ele>564.46</ele>
        <time>2014-02-03T16:39:40Z</time>
      </trkpt>
      <trkpt lat="48.11499" lon="6.74064">
        <ele>563.37</ele>
        <time>2014-02-03T16:39:50Z</time>
      </trkpt>
      <trkpt lat="48.115" lon="6.74057">
        <ele>562.66</ele>
        <time>2014-02-03T16:39:55Z</time>
      </trkpt>
      <trkpt lat="48.11508" lon="6.74035">
        <ele>560.78</ele>
        <time>2014-02-03T16:40:11Z</time>
      </trkpt>
      <trkpt lat="48.1151" lon="6.74015">
        <ele>558.86</ele>
        <time>2014-02-03T16:40:26Z</time>
      </trkpt>
      <trkpt lat="48.11508" lon="6.74011">
        <ele>558.71</ele>
        <time>2014-02-03T16:40:28Z</time>
      </trkpt>
      <trkpt lat="48.11498" lon="6.73994">
        <ele>555.47</ele>
        <time>2014-02-03T16:40:44Z</time>
      </trkpt>
      <trkpt lat="48.11491" lon="6.73982">
        <ele>552.47</ele>
        <time>2014-02-03T16:40:56Z</time>
      </trkpt>
      <trkpt lat="48.11491" lon="6.7398">
        <ele>552.26</ele>
        <time>2014-02-03T16:40:57Z</time>
      </trkpt>
      <trkpt lat="48.11493" lon="6.73973">
        <ele>551.06</ele>
        <time>2014-02-03T16:41:03Z</time>
      </trkpt>
      <trkpt lat="48.11503" lon="6.73956">
        <ele>549.4</ele>
        <time>2014-02-03T16:41:18Z</time>
      </trkpt>
      <trkpt lat="48.11516" lon="6.73939">
        <ele>548.64</ele>
        <time>2014-02-03T16:41:33Z</time>
      </trkpt>
      <trkpt lat="48.11531" lon="6.73922">
        <ele>548.29</ele>
        <time>2014-02-03T16:41:51Z</time>
      </trkpt>
      <trkpt lat="48.11542" lon="6.73914">
        <ele>548.44</ele>
        <time>2014-02-03T16:42:02Z</time>
      </trkpt>
      <trkpt lat="48.11544" lon="6.73913">
        <ele>548.51</ele>
        <time>2014-02-03T16:42:05Z</time>
      </trkpt>
      <trkpt lat="48.11549" lon="6.7391">
        <ele>548.43</ele>
        <time>2014-02-03T16:42:09Z</time>
      </trkpt>
      <trkpt lat="48.11553" lon="6.73908">
        <ele>548.3</ele>
        <time>2014-02-03T16:42:13Z</time>
      </trkpt>
      <trkpt lat="48.11571" lon="6.73894">
        <ele>548.05</ele>
        <time>2014-02-03T16:42:32Z</time>
      </trkpt>
      <trkpt lat="48.11581" lon="6.73885">
        <ele>548.63</ele>
        <time>2014-02-03T16:42:46Z</time>
      </trkpt>
      <trkpt lat="48.11603" lon="6.73869">
        <ele>548.24</ele>
        <time>2014-02-03T16:43:08Z</time>
      </trkpt>
      <trkpt lat="48.11624" lon="6.73854">
        <ele>546.19</ele>
        <time>2014-02-03T16:43:30Z</time>
      </trkpt>
      <trkpt lat="48.11626" lon="6.73853">
        <ele>545.89</ele>
        <time>2014-02-03T16:43:32Z</time>
      </trkpt>
      <trkpt lat="48.11637" lon="6.73835">
        <ele>543.4</ele>
        <time>2014-02-03T16:43:51Z</time>
      </trkpt>
      <trkpt lat="48.11647" lon="6.73812">
        <ele>541.59</ele>
        <time>2014-02-03T16:44:09Z</time>
      </trkpt>
      <trkpt lat="48.11656" lon="6.73792">
        <ele>539.97</ele>
        <time>2014-02-03T16:44:26Z</time>
      </trkpt>
      <trkpt lat="48.11666" lon="6.73771">
        <ele>538.2</ele>
        <time>2014-02-03T16:44:44Z</time>
      </trkpt>
      <trkpt lat="48.11678" lon="6.73752">
        <ele>536.25</ele>
        <time>2014-02-03T16:45:02Z</time>
      </trkpt>
      <trkpt lat="48.11694" lon="6.73727">
        <ele>534.78</ele>
        <time>2014-02-03T16:45:22Z</time>
      </trkpt>
      <trkpt lat="48.11708" lon="6.73705">
        <ele>534.19</ele>
        <time>2014-02-03T16:45:42Z</time>
      </trkpt>
      <trkpt lat="48.11725" lon="6.73683">
        <ele>533.51</ele>
        <time>2014-02-03T16:46:03Z</time>
      </trkpt>
      <trkpt lat="48.11734" lon="6.7367">
        <ele>533.61</ele>
        <time>2014-02-03T16:46:16Z</time>
      </trkpt>
      <trkpt lat="48.11735" lon="6.73668">
        <ele>533.56</ele>
        <time>2014-02-03T16:46:18Z</time>
      </trkpt>
      <trkpt lat="48.11748" lon="6.73651">
        <ele>533.24</ele>
        <time>2014-02-03T16:46:36Z</time>
      </trkpt>
      <trkpt lat="48.11756" lon="6.7364">
        <ele>532.95</ele>
        <time>2014-02-03T16:46:46Z</time>
      </trkpt>
      <trkpt lat="48.11759" lon="6.73634">
        <ele>532.44</ele>
        <time>2014-02-03T16:47:07Z</time>
      </trkpt>
      <trkpt lat="48.11761" lon="6.7363">
        <ele>532.26</ele>
        <time>2014-02-03T16:47:11Z</time>
      </trkpt>
      <trkpt lat="48.11774" lon="6.7361">
        <ele>531.28</ele>
        <time>2014-02-03T16:47:30Z</time>
      </trkpt>
      <trkpt lat="48.11786" lon="6.73586">
        <ele>530.3</ele>
        <time>2014-02-03T16:47:49Z</time>
      </trkpt>
      <trkpt lat="48.11799" lon="6.73557">
        <ele>529.34</ele>
        <time>2014-02-03T16:48:09Z</time>
      </trkpt>
      <trkpt lat="48.11803" lon="6.73545">
        <ele>528.72</ele>
        <time>2014-02-03T16:48:27Z</time>
      </trkpt>
      <trkpt lat="48.11811" lon="6.73526">
        <ele>528.12</ele>
        <time>2014-02-03T16:48:44Z</time>
      </trkpt>
      <trkpt lat="48.11813" lon="6.73523">
        <ele>527.91</ele>
        <time>2014-02-03T16:48:47Z</time>
      </trkpt>
      <trkpt lat="48.11824" lon="6.73514">
        <ele>526.58</ele>
        <time>2014-02-03T16:49:04Z</time>
      </trkpt>
      <trkpt lat="48.11843" lon="6.73509">
        <ele>525.49</ele>
        <time>2014-02-03T16:49:21Z</time>
      </trkpt>
      <trkpt lat="48.11851" lon="6.73496">
        <ele>524</ele>
        <time>2014-02-03T16:49:34Z</time>
      </trkpt>
      <trkpt lat="48.11849" lon="6.7347">
        <ele>522.44</ele>
        <time>2014-02-03T16:49:51Z</time>
      </trkpt>
      <trkpt lat="48.1184" lon="6.7346">
        <ele>520.58</ele>
        <time>2014-02-03T16:50:04Z</time>
      </trkpt>
      <trkpt lat="48.11823" lon="6.73447">
        <ele>517.34</ele>
        <time>2014-02-03T16:50:24Z</time>
      </trkpt>
      <trkpt lat="48.11811" lon="6.73432">
        <ele>514.68</ele>
        <time>2014-02-03T16:50:41Z</time>
      </trkpt>
      <trkpt lat="48.11801" lon="6.73414">
        <ele>512.18</ele>
        <time>2014-02-03T16:50:57Z</time>
      </trkpt>
      <trkpt lat="48.11792" lon="6.73395">
        <ele>509.21</ele>
        <time>2014-02-03T16:51:13Z</time>
      </trkpt>
      <trkpt lat="48.11785" lon="6.73376">
        <ele>506.51</ele>
        <time>2014-02-03T16:51:28Z</time>
      </trkpt>
      <trkpt lat="48.11773" lon="6.73361">
        <ele>503.54</ele>
        <time>2014-02-03T16:51:44Z</time>
      </trkpt>
      <trkpt lat="48.11756" lon="6.73346">
        <ele>500.58</ele>
        <time>2014-02-03T16:52:02Z</time>
      </trkpt>
      <trkpt lat="48.11757" lon="6.73322">
        <ele>498.44</ele>
        <time>2014-02-03T16:52:17Z</time>
      </trkpt>
      <trkpt lat="48.11768" lon="6.73301">
        <ele>497.38</ele>
        <time>2014-02-03T16:52:32Z</time>
      </trkpt>
      <trkpt lat="48.11786" lon="6.73276">
        <ele>496.44</ele>
        <time>2014-02-03T16:52:53Z</time>
      </trkpt>
      <trkpt lat="48.11789" lon="6.73274">
        <ele>496.34</ele>
        <time>2014-02-03T16:52:55Z</time>
      </trkpt>
      <trkpt lat="48.11806" lon="6.73248">
        <ele>495.57</ele>
        <time>2014-02-03T16:53:15Z</time>
      </trkpt>
      <trkpt lat="48.11825" lon="6.73221">
        <ele>494.73</ele>
        <time>2014-02-03T16:53:37Z</time>
      </trkpt>
      <trkpt lat="48.11834" lon="6.73207">
        <ele>494.63</ele>
        <time>2014-02-03T16:53:48Z</time>
      </trkpt>
      <trkpt lat="48.11848" lon="6.73196">
        <ele>494.12</ele>
        <time>2014-02-03T16:54:02Z</time>
      </trkpt>
      <trkpt lat="48.11864" lon="6.73179">
        <ele>493.29</ele>
        <time>2014-02-03T16:54:19Z</time>
      </trkpt>
      <trkpt lat="48.11878" lon="6.73163">
        <ele>493.35</ele>
        <time>2014-02-03T16:54:36Z</time>
      </trkpt>
      <trkpt lat="48.11898" lon="6.73145">
        <ele>492.62</ele>
        <time>2014-02-03T16:54:55Z</time>
      </trkpt>
      <trkpt lat="48.11913" lon="6.73136">
        <ele>492.78</ele>
        <time>2014-02-03T16:55:10Z</time>
      </trkpt>
      <trkpt lat="48.1193" lon="6.73129">
        <ele>492.84</ele>
        <time>2014-02-03T16:55:26Z</time>
      </trkpt>
      <trkpt lat="48.11948" lon="6.73125">
        <ele>493.78</ele>
        <time>2014-02-03T16:55:43Z</time>
      </trkpt>
      <trkpt lat="48.1196" lon="6.73124">
        <ele>494.34</ele>
        <time>2014-02-03T16:55:58Z</time>
      </trkpt>
      <trkpt lat="48.11969" lon="6.73125">
        <ele>494.78</ele>
        <time>2014-02-03T16:56:19Z</time>
      </trkpt>
      <trkpt lat="48.11969" lon="6.73126">
        <ele>495.17</ele>
        <time>2014-02-03T16:56:33Z</time>
      </trkpt>
    </trkseg>
  </trk>
</gpx>